sensor_id;sensor_type;location;lat;lon;timestamp;pressure;altitude;pressure_sealevel;temperature;humidity
48200;BME280;33990;44.602;10.976;2023-06-14T00:02:17;100504.19;;;25.09;61.46
48200;BME280;33990;44.602;10.976;2023-06-14T00:04:45;100503.34;;;25.09;61.22
48200;BME280;33990;44.602;10.976;2023-06-14T00:07:12;100498.78;;;25.09;61.16
48200;BME280;33990;44.602;10.976;2023-06-14T00:09:41;100497.75;;;25.10;61.16
48200;BME280;33990;44.602;10.976;2023-06-14T00:12:08;100501.47;;;25.09;61.23
48200;BME280;33990;44.602;10.976;2023-06-14T00:14:36;100495.03;;;25.10;61.15
48200;BME280;33990;44.602;10.976;2023-06-14T00:17:03;100492.50;;;25.09;61.20
48200;BME280;33990;44.602;10.976;2023-06-14T00:19:30;100496.06;;;25.09;61.10
48200;BME280;33990;44.602;10.976;2023-06-14T00:22:01;100506.91;;;25.09;60.82
48200;BME280;33990;44.602;10.976;2023-06-14T00:24:30;100504.19;;;25.09;61.06
48200;BME280;33990;44.602;10.976;2023-06-14T00:26:57;100498.78;;;25.09;60.88
48200;BME280;33990;44.602;10.976;2023-06-14T00:29:25;100495.03;;;25.10;60.95
48200;BME280;33990;44.602;10.976;2023-06-14T00:31:52;100505.88;;;25.10;60.90
48200;BME280;33990;44.602;10.976;2023-06-14T00:34:20;100492.50;;;25.09;60.93
48200;BME280;33990;44.602;10.976;2023-06-14T00:36:47;100497.94;;;25.09;60.78
48200;BME280;33990;44.602;10.976;2023-06-14T00:39:15;100500.66;;;25.09;60.96
48200;BME280;33990;44.602;10.976;2023-06-14T00:41:42;100500.44;;;25.10;60.92
48200;BME280;33990;44.602;10.976;2023-06-14T00:44:10;100495.03;;;25.10;60.98
48200;BME280;33990;44.602;10.976;2023-06-14T00:46:37;100489.63;;;25.10;60.78
48200;BME280;33990;44.602;10.976;2023-06-14T00:49:05;100489.63;;;25.10;60.72
48200;BME280;33990;44.602;10.976;2023-06-14T00:51:33;100491.50;;;25.10;60.88
48200;BME280;33990;44.602;10.976;2023-06-14T00:54:01;100484.19;;;25.10;60.80
48200;BME280;33990;44.602;10.976;2023-06-14T00:56:28;100478.97;;;25.09;60.78
48200;BME280;33990;44.602;10.976;2023-06-14T00:58:57;100478.97;;;25.09;60.67
48200;BME280;33990;44.602;10.976;2023-06-14T01:01:25;100477.09;;;25.09;60.64
48200;BME280;33990;44.602;10.976;2023-06-14T01:03:52;100477.09;;;25.09;60.49
48200;BME280;33990;44.602;10.976;2023-06-14T01:11:50;100478.09;;;25.08;60.41
48200;BME280;33990;44.602;10.976;2023-06-14T01:14:22;100468.13;;;25.09;60.15
48200;BME280;33990;44.602;10.976;2023-06-14T01:16:52;100468.13;;;25.09;60.31
48200;BME280;33990;44.602;10.976;2023-06-14T01:19:22;100471.69;;;25.09;60.25
48200;BME280;33990;44.602;10.976;2023-06-14T01:21:53;100469.97;;;25.08;60.14
48200;BME280;33990;44.602;10.976;2023-06-14T01:24:22;100471.84;;;25.08;60.13
48200;BME280;33990;44.602;10.976;2023-06-14T01:26:55;100468.13;;;25.09;59.96
48200;BME280;33990;44.602;10.976;2023-06-14T01:29:24;100466.28;;;25.09;59.58
48200;BME280;33990;44.602;10.976;2023-06-14T01:31:53;100466.28;;;25.09;59.85
48200;BME280;33990;44.602;10.976;2023-06-14T01:34:21;100461.84;;;25.08;59.61
48200;BME280;33990;44.602;10.976;2023-06-14T01:36:52;100459.16;;;25.08;59.61
48200;BME280;33990;44.602;10.976;2023-06-14T01:39:22;100456.44;;;25.08;59.73
48200;BME280;33990;44.602;10.976;2023-06-14T01:41:51;100453.72;;;25.08;59.83
48200;BME280;33990;44.602;10.976;2023-06-14T01:44:19;100446.47;;;25.09;59.53
48200;BME280;33990;44.602;10.976;2023-06-14T01:46:48;100449.19;;;25.09;59.64
48200;BME280;33990;44.602;10.976;2023-06-14T01:49:15;100444.59;;;25.09;59.41
48200;BME280;33990;44.602;10.976;2023-06-14T01:51:43;100446.47;;;25.09;59.43
48200;BME280;33990;44.602;10.976;2023-06-14T01:54:10;100438.34;;;25.09;59.42
48200;BME280;33990;44.602;10.976;2023-06-14T01:56:38;100439.34;;;25.08;59.36
48200;BME280;33990;44.602;10.976;2023-06-14T01:59:05;100437.47;;;25.08;59.24
48200;BME280;33990;44.602;10.976;2023-06-14T02:01:33;100437.47;;;25.08;59.51
48200;BME280;33990;44.602;10.976;2023-06-14T02:04:01;100440.19;;;25.08;59.24
48200;BME280;33990;44.602;10.976;2023-06-14T02:06:29;100429.50;;;25.07;59.36
48200;BME280;33990;44.602;10.976;2023-06-14T02:08:56;100429.50;;;25.07;59.22
48200;BME280;33990;44.602;10.976;2023-06-14T02:11:24;100430.34;;;25.07;59.27
48200;BME280;33990;44.602;10.976;2023-06-14T02:13:52;100433.94;;;25.08;59.23
48200;BME280;33990;44.602;10.976;2023-06-14T02:16:20;100435.75;;;25.07;59.36
48200;BME280;33990;44.602;10.976;2023-06-14T02:18:48;100444.75;;;25.08;59.30
48200;BME280;33990;44.602;10.976;2023-06-14T02:21:16;100442.06;;;25.08;59.26
48200;BME280;33990;44.602;10.976;2023-06-14T02:23:45;100435.75;;;25.07;59.23
48200;BME280;33990;44.602;10.976;2023-06-14T02:26:13;100431.22;;;25.08;59.27
48200;BME280;33990;44.602;10.976;2023-06-14T02:28:40;100435.75;;;25.07;59.38
48200;BME280;33990;44.602;10.976;2023-06-14T02:31:08;100434.09;;;25.06;59.30
48200;BME280;33990;44.602;10.976;2023-06-14T02:33:36;100435.75;;;25.07;59.01
48200;BME280;33990;44.602;10.976;2023-06-14T02:36:03;100431.38;;;25.06;59.18
48200;BME280;33990;44.602;10.976;2023-06-14T02:38:34;100431.22;;;25.08;59.07
48200;BME280;33990;44.602;10.976;2023-06-14T02:41:01;100437.63;;;25.07;58.97
48200;BME280;33990;44.602;10.976;2023-06-14T02:43:29;100434.09;;;25.06;59.36
48200;BME280;33990;44.602;10.976;2023-06-14T02:45:58;100430.34;;;25.07;59.28
48200;BME280;33990;44.602;10.976;2023-06-14T02:48:27;100433.06;;;25.07;59.19
48200;BME280;33990;44.602;10.976;2023-06-14T02:50:55;100432.06;;;25.08;58.94
48200;BME280;33990;44.602;10.976;2023-06-14T02:53:23;100426.81;;;25.07;59.30
48200;BME280;33990;44.602;10.976;2023-06-14T02:55:50;100433.06;;;25.07;59.18
48200;BME280;33990;44.602;10.976;2023-06-14T02:58:19;100435.75;;;25.07;59.32
48200;BME280;33990;44.602;10.976;2023-06-14T03:00:46;100439.50;;;25.06;59.15
48200;BME280;33990;44.602;10.976;2023-06-14T03:03:13;100435.75;;;25.07;59.17
48200;BME280;33990;44.602;10.976;2023-06-14T03:05:50;100441.19;;;25.07;59.19
48200;BME280;33990;44.602;10.976;2023-06-14T03:08:22;100429.34;;;25.08;58.92
48200;BME280;33990;44.602;10.976;2023-06-14T03:10:54;100433.06;;;25.07;59.10
48200;BME280;33990;44.602;10.976;2023-06-14T03:13:24;100435.75;;;25.07;58.81
48200;BME280;33990;44.602;10.976;2023-06-14T03:15:51;100427.63;;;25.07;58.93
48200;BME280;33990;44.602;10.976;2023-06-14T03:18:21;100432.22;;;25.07;58.94
48200;BME280;33990;44.602;10.976;2023-06-14T03:20:54;100432.22;;;25.07;59.04
48200;BME280;33990;44.602;10.976;2023-06-14T03:23:25;100434.09;;;25.06;59.06
48200;BME280;33990;44.602;10.976;2023-06-14T03:25:53;100429.69;;;25.05;58.81
48200;BME280;33990;44.602;10.976;2023-06-14T03:28:21;100433.25;;;25.06;58.64
48200;BME280;33990;44.602;10.976;2023-06-14T03:30:49;100430.53;;;25.06;58.66
48200;BME280;33990;44.602;10.976;2023-06-14T03:33:17;100435.94;;;25.06;58.68
48200;BME280;33990;44.602;10.976;2023-06-14T03:35:44;100427.00;;;25.05;58.84
48200;BME280;33990;44.602;10.976;2023-06-14T03:38:12;100428.84;;;25.05;58.63
48200;BME280;33990;44.602;10.976;2023-06-14T03:40:40;100436.16;;;25.04;58.83
48200;BME280;33990;44.602;10.976;2023-06-14T03:43:07;100441.56;;;25.04;58.64
48200;BME280;33990;44.602;10.976;2023-06-14T03:45:35;100446.97;;;25.04;58.72
48200;BME280;33990;44.602;10.976;2023-06-14T03:48:02;100445.28;;;25.03;58.54
48200;BME280;33990;44.602;10.976;2023-06-14T03:50:31;100446.13;;;25.04;58.50
48200;BME280;33990;44.602;10.976;2023-06-14T03:52:59;100443.44;;;25.04;58.46
48200;BME280;33990;44.602;10.976;2023-06-14T03:55:28;100454.25;;;25.04;58.43
48200;BME280;33990;44.602;10.976;2023-06-14T03:58:02;100450.69;;;25.03;58.69
48200;BME280;33990;44.602;10.976;2023-06-14T04:00:29;100446.13;;;25.04;58.43
48200;BME280;33990;44.602;10.976;2023-06-14T04:02:57;100449.84;;;25.03;58.55
48200;BME280;33990;44.602;10.976;2023-06-14T04:05:24;100447.97;;;25.03;58.43
48200;BME280;33990;44.602;10.976;2023-06-14T04:07:55;100442.56;;;25.03;58.47
48200;BME280;33990;44.602;10.976;2023-06-14T04:10:23;100447.31;;;25.01;58.48
48200;BME280;33990;44.602;10.976;2023-06-14T04:12:50;100453.59;;;25.02;58.62
48200;BME280;33990;44.602;10.976;2023-06-14T04:15:19;100459.84;;;25.02;58.57
48200;BME280;33990;44.602;10.976;2023-06-14T04:17:51;100452.75;;;25.01;58.58
48200;BME280;33990;44.602;10.976;2023-06-14T04:20:22;100455.47;;;25.01;58.63
48200;BME280;33990;44.602;10.976;2023-06-14T04:22:51;100461.72;;;25.02;58.51
48200;BME280;33990;44.602;10.976;2023-06-14T04:25:20;100463.56;;;25.01;58.42
48200;BME280;33990;44.602;10.976;2023-06-14T04:27:51;100470.88;;;25.01;58.82
48200;BME280;33990;44.602;10.976;2023-06-14T04:30:21;100467.31;;;25.00;58.87
48200;BME280;33990;44.602;10.976;2023-06-14T04:32:55;100469.84;;;25.02;58.53
48200;BME280;33990;44.602;10.976;2023-06-14T04:35:23;100477.97;;;25.02;58.72
48200;BME280;33990;44.602;10.976;2023-06-14T04:37:51;100486.09;;;25.02;58.61
48200;BME280;33990;44.602;10.976;2023-06-14T04:40:21;100479.81;;;25.01;58.50
48200;BME280;33990;44.602;10.976;2023-06-14T04:42:48;100479.81;;;25.01;58.73
48200;BME280;33990;44.602;10.976;2023-06-14T04:45:18;100479.81;;;25.01;58.49
48200;BME280;33990;44.602;10.976;2023-06-14T04:47:46;100482.53;;;25.01;58.58
48200;BME280;33990;44.602;10.976;2023-06-14T04:50:14;100477.97;;;25.02;58.48
48200;BME280;33990;44.602;10.976;2023-06-14T04:52:42;100485.25;;;25.01;58.62
48200;BME280;33990;44.602;10.976;2023-06-14T04:55:10;100483.56;;;25.00;58.13
48200;BME280;33990;44.602;10.976;2023-06-14T04:57:38;100488.97;;;25.00;58.42
48200;BME280;33990;44.602;10.976;2023-06-14T05:00:07;100495.25;;;25.01;58.29
48200;BME280;33990;44.602;10.976;2023-06-14T05:02:35;100496.06;;;25.01;58.17
48200;BME280;33990;44.602;10.976;2023-06-14T05:05:03;100494.22;;;25.02;58.52
48200;BME280;33990;44.602;10.976;2023-06-14T05:07:33;100497.09;;;25.00;58.14
48200;BME280;33990;44.602;10.976;2023-06-14T05:10:01;100489.81;;;25.01;58.37
48200;BME280;33990;44.602;10.976;2023-06-14T05:12:29;100489.81;;;25.01;58.14
48200;BME280;33990;44.602;10.976;2023-06-14T05:14:57;100495.41;;;24.99;58.49
48200;BME280;33990;44.602;10.976;2023-06-14T05:17:26;100511.50;;;25.01;58.17
48200;BME280;33990;44.602;10.976;2023-06-14T05:19:55;100507.94;;;25.00;58.50
48200;BME280;33990;44.602;10.976;2023-06-14T05:22:23;100507.94;;;25.00;58.28
48200;BME280;33990;44.602;10.976;2023-06-14T05:24:50;100508.78;;;25.01;58.19
48200;BME280;33990;44.602;10.976;2023-06-14T05:27:18;100507.94;;;25.00;58.27
48200;BME280;33990;44.602;10.976;2023-06-14T05:29:45;100497.25;;;24.99;58.14
48200;BME280;33990;44.602;10.976;2023-06-14T05:32:12;100493.56;;;25.00;58.45
48200;BME280;33990;44.602;10.976;2023-06-14T05:34:40;100489.97;;;24.99;58.55
48200;BME280;33990;44.602;10.976;2023-06-14T05:37:07;100493.56;;;25.00;58.30
48200;BME280;33990;44.602;10.976;2023-06-14T05:39:35;100495.25;;;25.01;58.60
48200;BME280;33990;44.602;10.976;2023-06-14T05:42:02;100488.16;;;25.00;58.66
48200;BME280;33990;44.602;10.976;2023-06-14T05:44:30;100497.09;;;25.00;58.72
48200;BME280;33990;44.602;10.976;2023-06-14T05:46:57;100497.94;;;25.01;58.69
48200;BME280;33990;44.602;10.976;2023-06-14T05:49:24;100489.81;;;25.01;58.35
48200;BME280;33990;44.602;10.976;2023-06-14T05:51:52;100493.38;;;25.01;58.71
48200;BME280;33990;44.602;10.976;2023-06-14T05:54:19;100487.94;;;25.01;58.56
48200;BME280;33990;44.602;10.976;2023-06-14T05:56:46;100488.78;;;25.02;58.58
48200;BME280;33990;44.602;10.976;2023-06-14T05:59:14;100487.94;;;25.01;58.64
48200;BME280;33990;44.602;10.976;2023-06-14T06:01:41;100491.50;;;25.02;58.51
48200;BME280;33990;44.602;10.976;2023-06-14T06:04:09;100493.38;;;25.01;58.43
48200;BME280;33990;44.602;10.976;2023-06-14T06:06:36;100496.06;;;25.01;58.77
48200;BME280;33990;44.602;10.976;2023-06-14T06:09:03;100499.63;;;25.02;58.52
48200;BME280;33990;44.602;10.976;2023-06-14T06:11:32;100506.72;;;25.03;58.53
48200;BME280;33990;44.602;10.976;2023-06-14T06:14:18;100502.34;;;25.02;58.74
48200;BME280;33990;44.602;10.976;2023-06-14T06:16:45;100501.50;;;25.01;58.79
48200;BME280;33990;44.602;10.976;2023-06-14T06:19:13;100502.34;;;25.02;59.01
48200;BME280;33990;44.602;10.976;2023-06-14T06:21:41;100495.88;;;25.03;59.03
48200;BME280;33990;44.602;10.976;2023-06-14T06:24:08;100501.50;;;25.01;58.66
48200;BME280;33990;44.602;10.976;2023-06-14T06:26:35;100502.16;;;25.03;58.72
48200;BME280;33990;44.602;10.976;2023-06-14T06:29:03;100499.44;;;25.03;58.89
48200;BME280;33990;44.602;10.976;2023-06-14T06:31:31;100504.84;;;25.03;58.66
48200;BME280;33990;44.602;10.976;2023-06-14T06:33:58;100511.31;;;25.02;58.75
48200;BME280;33990;44.602;10.976;2023-06-14T06:36:25;100499.44;;;25.03;59.19
48200;BME280;33990;44.602;10.976;2023-06-14T06:38:53;100503.16;;;25.02;59.00
48200;BME280;33990;44.602;10.976;2023-06-14T06:41:20;100504.84;;;25.03;58.84
48200;BME280;33990;44.602;10.976;2023-06-14T06:43:48;100504.84;;;25.03;58.85
48200;BME280;33990;44.602;10.976;2023-06-14T06:46:17;100503.84;;;25.04;58.96
48200;BME280;33990;44.602;10.976;2023-06-14T06:48:46;100523.66;;;25.05;59.11
48200;BME280;33990;44.602;10.976;2023-06-14T06:51:13;100521.09;;;25.03;58.59
48200;BME280;33990;44.602;10.976;2023-06-14T06:53:42;100530.59;;;24.99;58.06
48200;BME280;33990;44.602;10.976;2023-06-14T06:56:15;100528.44;;;24.95;57.49
48200;BME280;33990;44.602;10.976;2023-06-14T06:58:43;100528.31;;;24.88;57.43
48200;BME280;33990;44.602;10.976;2023-06-14T07:01:10;100531.16;;;24.86;57.26
48200;BME280;33990;44.602;10.976;2023-06-14T07:03:38;100531.53;;;24.83;57.35
48200;BME280;33990;44.602;10.976;2023-06-14T07:06:06;100526.97;;;24.84;57.56
48200;BME280;33990;44.602;10.976;2023-06-14T07:08:33;100532.00;;;24.87;57.77
48200;BME280;33990;44.602;10.976;2023-06-14T07:11:01;100532.50;;;24.90;57.69
48200;BME280;33990;44.602;10.976;2023-06-14T07:13:29;100543.69;;;24.96;58.15
48200;BME280;33990;44.602;10.976;2023-06-14T07:16:00;100537.03;;;24.98;58.06
48200;BME280;33990;44.602;10.976;2023-06-14T07:18:28;100534.00;;;25.01;58.19
48200;BME280;33990;44.602;10.976;2023-06-14T07:20:56;100540.25;;;25.02;58.24
48200;BME280;33990;44.602;10.976;2023-06-14T07:23:24;100551.94;;;25.02;58.33
48200;BME280;33990;44.602;10.976;2023-06-14T07:25:52;100539.06;;;25.04;58.68
48200;BME280;33990;44.602;10.976;2023-06-14T07:28:19;100548.69;;;25.07;58.63
48200;BME280;33990;44.602;10.976;2023-06-14T07:30:47;100551.25;;;25.08;58.44
48200;BME280;33990;44.602;10.976;2023-06-14T07:33:15;100554.94;;;25.07;58.61
48200;BME280;33990;44.602;10.976;2023-06-14T07:35:43;100551.38;;;25.07;58.57
48200;BME280;33990;44.602;10.976;2023-06-14T07:38:10;100556.31;;;25.03;58.75
48200;BME280;33990;44.602;10.976;2023-06-14T07:40:37;100560.38;;;24.99;59.01
48200;BME280;33990;44.602;10.976;2023-06-14T07:43:05;100558.91;;;24.97;58.80
48200;BME280;33990;44.602;10.976;2023-06-14T07:45:32;100563.47;;;24.96;59.47
48200;BME280;33990;44.602;10.976;2023-06-14T07:48:00;100552.16;;;24.92;59.75
48200;BME280;33990;44.602;10.976;2023-06-14T07:50:27;100561.31;;;24.91;59.43
48200;BME280;33990;44.602;10.976;2023-06-14T07:52:56;100553.19;;;24.91;59.78
48200;BME280;33990;44.602;10.976;2023-06-14T07:55:23;100562.13;;;24.92;59.55
48200;BME280;33990;44.602;10.976;2023-06-14T07:57:52;100570.28;;;24.84;59.30
48200;BME280;33990;44.602;10.976;2023-06-14T08:00:20;100556.78;;;24.76;59.37
48200;BME280;33990;44.602;10.976;2023-06-14T08:02:47;100556.28;;;24.72;59.43
48200;BME280;33990;44.602;10.976;2023-06-14T08:05:15;100559.84;;;24.73;60.02
48200;BME280;33990;44.602;10.976;2023-06-14T08:07:43;100551.88;;;24.71;60.02
48200;BME280;33990;44.602;10.976;2023-06-14T08:10:10;100560.84;;;24.72;60.03
48200;BME280;33990;44.602;10.976;2023-06-14T08:12:37;100560.84;;;24.72;60.01
48200;BME280;33990;44.602;10.976;2023-06-14T08:15:05;100567.44;;;24.69;59.73
48200;BME280;33990;44.602;10.976;2023-06-14T08:17:45;100568.63;;;24.66;59.50
48200;BME280;33990;44.602;10.976;2023-06-14T08:20:13;100562.56;;;24.64;59.60
48200;BME280;33990;44.602;10.976;2023-06-14T08:22:40;100564.94;;;24.67;59.60
48200;BME280;33990;44.602;10.976;2023-06-14T08:25:09;100563.06;;;24.68;59.94
48200;BME280;33990;44.602;10.976;2023-06-14T08:27:39;100573.38;;;24.73;59.93
48200;BME280;33990;44.602;10.976;2023-06-14T08:30:07;100575.88;;;24.74;60.27
48200;BME280;33990;44.602;10.976;2023-06-14T08:32:35;100571.31;;;24.75;60.15
48200;BME280;33990;44.602;10.976;2023-06-14T08:35:03;100572.16;;;24.75;60.16
48200;BME280;33990;44.602;10.976;2023-06-14T08:37:32;100581.81;;;24.70;60.19
48200;BME280;33990;44.602;10.976;2023-06-14T08:40:03;100580.81;;;24.71;59.70
48200;BME280;33990;44.602;10.976;2023-06-14T08:42:33;100571.69;;;24.72;59.57
48200;BME280;33990;44.602;10.976;2023-06-14T08:45:02;100566.59;;;24.69;59.73
48200;BME280;33990;44.602;10.976;2023-06-14T08:47:31;100571.34;;;24.66;59.93
48200;BME280;33990;44.602;10.976;2023-06-14T08:50:08;100579.47;;;24.66;60.04
48200;BME280;33990;44.602;10.976;2023-06-14T08:52:56;100586.09;;;24.64;59.95
48200;BME280;33990;44.602;10.976;2023-06-14T08:55:28;100588.44;;;24.59;59.71
48200;BME280;33990;44.602;10.976;2023-06-14T08:57:57;100588.97;;;24.54;59.89
48200;BME280;33990;44.602;10.976;2023-06-14T09:00:26;100588.63;;;24.49;60.02
48200;BME280;33990;44.602;10.976;2023-06-14T09:02:54;100587.97;;;24.47;59.92
48200;BME280;33990;44.602;10.976;2023-06-14T09:05:26;100586.13;;;24.48;59.88
48200;BME280;33990;44.602;10.976;2023-06-14T09:07:54;100581.53;;;24.48;60.21
48200;BME280;33990;44.602;10.976;2023-06-14T09:10:22;100577.47;;;24.52;60.13
48200;BME280;33990;44.602;10.976;2023-06-14T09:12:51;100580.00;;;24.54;60.54
48200;BME280;33990;44.602;10.976;2023-06-14T09:15:18;100584.22;;;24.56;60.93
48200;BME280;33990;44.602;10.976;2023-06-14T09:17:46;100578.63;;;24.58;61.09
48200;BME280;33990;44.602;10.976;2023-06-14T09:20:13;100575.28;;;24.56;60.84
48200;BME280;33990;44.602;10.976;2023-06-14T09:22:45;100575.09;;;24.57;60.62
48200;BME280;33990;44.602;10.976;2023-06-14T09:25:13;100578.94;;;24.63;60.51
48200;BME280;33990;44.602;10.976;2023-06-14T09:27:59;100574.88;;;24.67;60.43
48200;BME280;33990;44.602;10.976;2023-06-14T09:30:27;100581.50;;;24.73;60.43
48200;BME280;33990;44.602;10.976;2023-06-14T09:32:55;100576.38;;;24.78;60.29
48200;BME280;33990;44.602;10.976;2023-06-14T09:35:26;100581.47;;;24.81;61.02
48200;BME280;33990;44.602;10.976;2023-06-14T09:37:56;100570.63;;;24.81;61.38
48200;BME280;33990;44.602;10.976;2023-06-14T09:40:27;100578.56;;;24.82;61.43
48200;BME280;33990;44.602;10.976;2023-06-14T09:42:57;100579.25;;;24.84;61.25
48200;BME280;33990;44.602;10.976;2023-06-14T09:45:27;100574.50;;;24.86;61.10
48200;BME280;33990;44.602;10.976;2023-06-14T09:47:58;100577.72;;;24.82;60.54
48200;BME280;33990;44.602;10.976;2023-06-14T09:50:28;100569.94;;;24.79;60.09
48200;BME280;33990;44.602;10.976;2023-06-14T09:53:02;100574.72;;;24.77;59.89
48200;BME280;33990;44.602;10.976;2023-06-14T09:55:31;100579.28;;;24.76;60.29
48200;BME280;33990;44.602;10.976;2023-06-14T09:58:04;100572.84;;;24.77;59.83
48200;BME280;33990;44.602;10.976;2023-06-14T10:00:34;100574.38;;;24.80;59.90
48200;BME280;33990;44.602;10.976;2023-06-14T10:05:42;100573.66;;;24.86;59.38
48200;BME280;33990;44.602;10.976;2023-06-14T10:08:13;100568.09;;;24.87;58.25
48200;BME280;33990;44.602;10.976;2023-06-14T10:10:43;100563.31;;;24.89;57.54
48200;BME280;33990;44.602;10.976;2023-06-14T10:13:11;100559.44;;;24.92;57.45
48200;BME280;33990;44.602;10.976;2023-06-14T10:15:52;100558.59;;;24.91;57.97
48200;BME280;33990;44.602;10.976;2023-06-14T10:21:46;100559.59;;;24.90;57.85
48200;BME280;33990;44.602;10.976;2023-06-14T10:24:28;100553.31;;;24.90;57.74
48200;BME280;33990;44.602;10.976;2023-06-14T10:26:58;100552.69;;;24.88;57.05
48200;BME280;33990;44.602;10.976;2023-06-14T10:29:28;100552.50;;;24.89;56.69
48200;BME280;33990;44.602;10.976;2023-06-14T10:32:00;100545.41;;;24.88;56.12
48200;BME280;33990;44.602;10.976;2023-06-14T10:34:31;100540.63;;;24.90;56.25
48200;BME280;33990;44.602;10.976;2023-06-14T10:37:05;100536.06;;;24.91;55.96
48200;BME280;33990;44.602;10.976;2023-06-14T10:39:43;100541.47;;;24.91;55.68
48200;BME280;33990;44.602;10.976;2023-06-14T10:42:13;100537.94;;;24.90;55.43
48200;BME280;33990;44.602;10.976;2023-06-14T10:47:19;100525.06;;;24.92;56.03
48200;BME280;33990;44.602;10.976;2023-06-14T10:49:50;100530.47;;;24.92;56.23
48200;BME280;33990;44.602;10.976;2023-06-14T10:52:25;100534.03;;;24.93;56.59
48200;BME280;33990;44.602;10.976;2023-06-14T10:57:23;100522.84;;;24.96;56.88
48200;BME280;33990;44.602;10.976;2023-06-14T10:59:51;100520.16;;;24.96;56.83
48200;BME280;33990;44.602;10.976;2023-06-14T11:04:52;100518.09;;;24.98;56.74
48200;BME280;33990;44.602;10.976;2023-06-14T11:10:41;100509.81;;;25.00;56.85
48200;BME280;33990;44.602;10.976;2023-06-14T11:13:09;100515.22;;;25.00;56.59
48200;BME280;33990;44.602;10.976;2023-06-14T11:15:37;100501.69;;;25.00;56.62
48200;BME280;33990;44.602;10.976;2023-06-14T11:18:06;100504.19;;;25.01;57.00
48200;BME280;33990;44.602;10.976;2023-06-14T11:20:35;100509.63;;;25.01;57.04
48200;BME280;33990;44.602;10.976;2023-06-14T11:23:04;100503.16;;;25.02;56.92
48200;BME280;33990;44.602;10.976;2023-06-14T11:25:32;100504.84;;;25.03;56.88
48200;BME280;33990;44.602;10.976;2023-06-14T11:27:59;100503.84;;;25.04;57.23
48200;BME280;33990;44.602;10.976;2023-06-14T11:30:27;100504.50;;;25.06;57.03
48200;BME280;33990;44.602;10.976;2023-06-14T11:32:57;100498.94;;;25.08;57.11
48200;BME280;33990;44.602;10.976;2023-06-14T11:35:26;100496.06;;;25.09;57.29
48200;BME280;33990;44.602;10.976;2023-06-14T11:37:54;100493.34;;;25.09;57.10
48200;BME280;33990;44.602;10.976;2023-06-14T11:40:25;100493.16;;;25.11;56.89
48200;BME280;33990;44.602;10.976;2023-06-14T11:43:00;100486.75;;;25.12;56.51
48200;BME280;33990;44.602;10.976;2023-06-14T11:45:29;100482.16;;;25.12;55.72
48200;BME280;33990;44.602;10.976;2023-06-14T11:48:00;100482.16;;;25.12;55.21
48200;BME280;33990;44.602;10.976;2023-06-14T11:50:28;100475.72;;;25.13;55.05
48200;BME280;33990;44.602;10.976;2023-06-14T11:52:59;100474.69;;;25.14;55.00
48200;BME280;33990;44.602;10.976;2023-06-14T11:55:37;100475.72;;;25.13;55.09
48200;BME280;33990;44.602;10.976;2023-06-14T11:58:06;100472.19;;;25.13;55.15
48200;BME280;33990;44.602;10.976;2023-06-14T12:00:35;100474.69;;;25.14;54.95
48200;BME280;33990;44.602;10.976;2023-06-14T12:03:03;100474.00;;;25.21;53.91
48200;BME280;33990;44.602;10.976;2023-06-14T12:05:33;100464.84;;;25.22;53.55
48200;BME280;33990;44.602;10.976;2023-06-14T12:08:02;100457.53;;;25.22;53.40
48200;BME280;33990;44.602;10.976;2023-06-14T12:10:39;100459.41;;;25.22;53.49
48200;BME280;33990;44.602;10.976;2023-06-14T12:13:07;100453.66;;;25.25;52.96
48200;BME280;33990;44.602;10.976;2023-06-14T12:15:34;100448.81;;;25.35;51.94
48200;BME280;33990;44.602;10.976;2023-06-14T12:18:05;100448.28;;;25.39;51.29
48200;BME280;33990;44.602;10.976;2023-06-14T12:20:34;100441.84;;;25.40;50.35
48200;BME280;33990;44.602;10.976;2023-06-14T12:23:04;100448.81;;;25.35;50.88
48200;BME280;33990;44.602;10.976;2023-06-14T12:25:33;100444.44;;;25.34;51.44
48200;BME280;33990;44.602;10.976;2023-06-14T12:28:09;100436.66;;;25.31;52.07
48200;BME280;33990;44.602;10.976;2023-06-14T12:30:37;100432.47;;;25.28;52.66
48200;BME280;33990;44.602;10.976;2023-06-14T12:33:05;100439.72;;;25.28;52.86
48200;BME280;33990;44.602;10.976;2023-06-14T12:35:33;100437.00;;;25.28;53.05
48200;BME280;33990;44.602;10.976;2023-06-14T12:38:00;100444.50;;;25.26;53.37
48200;BME280;33990;44.602;10.976;2023-06-14T12:40:28;100441.97;;;25.24;53.38
48200;BME280;33990;44.602;10.976;2023-06-14T12:42:55;100445.53;;;25.25;53.38
48200;BME280;33990;44.602;10.976;2023-06-14T12:45:22;100447.19;;;25.26;53.63
48200;BME280;33990;44.602;10.976;2023-06-14T12:47:50;100447.84;;;25.28;53.63
48200;BME280;33990;44.602;10.976;2023-06-14T12:50:19;100441.03;;;25.32;51.89
48200;BME280;33990;44.602;10.976;2023-06-14T12:52:48;100441.38;;;25.37;51.64
48200;BME280;33990;44.602;10.976;2023-06-14T12:55:16;100441.66;;;25.42;51.71
48200;BME280;33990;44.602;10.976;2023-06-14T12:57:43;100453.81;;;25.46;53.11
48200;BME280;33990;44.602;10.976;2023-06-14T13:00:11;100459.19;;;25.54;54.12
48200;BME280;33990;44.602;10.976;2023-06-14T13:02:40;100460.38;;;25.52;54.51
48200;BME280;33990;44.602;10.976;2023-06-14T13:05:08;100452.44;;;25.50;54.35
48200;BME280;33990;44.602;10.976;2023-06-14T13:07:35;100452.84;;;25.39;54.55
48200;BME280;33990;44.602;10.976;2023-06-14T13:10:03;100454.25;;;25.35;54.79
48200;BME280;33990;44.602;10.976;2023-06-14T13:12:31;100453.03;;;25.37;54.86